Time;durP1;ratioP1;P1;durP2;ratioP2;P2;SDS_P1;SDS_P2;PMS_P1;PMS_P2;Temp;Humidity;BMP_temperature;BMP_pressure;BME280_temperature;BME280_humidity;BME280_pressure;Samples;Min_cycle;Max_cycle;Signal;HPM_P1;HPM_P2
2021/04/12 00:01:26;;;;;;;8.77;4.70;;;;;;;7.30;46.64;100930.44;5048544;28;20808;-23
2021/04/12 00:04:00;;;;;;;8.73;4.93;;;;;;;6.66;48.02;100936.75;5014743;28;20033;-23
2021/04/12 00:06:44;;;;;;;6.35;3.95;;;;;;;6.23;50.13;100930.88;5048210;28;20033;-22
2021/04/12 00:09:13;;;;;;;7.10;3.83;;;;;;;6.89;47.52;100920.06;5016128;28;20488;-23
2021/04/12 00:11:49;;;;;;;7.00;3.75;;;;;;;6.77;48.54;100920.44;5048250;28;20028;-23
2021/04/12 00:14:38;;;;;;;10.35;4.45;;;;;;;6.48;48.05;100941.41;5029999;28;20029;-23
2021/04/12 00:17:13;;;;;;;10.75;4.88;;;;;;;6.31;47.47;100945.94;5030519;28;20043;-22
2021/04/12 00:19:43;;;;;;;14.43;5.90;;;;;;;5.77;49.35;100927.94;5014824;28;20091;-22
2021/04/12 00:22:32;;;;;;;7.63;4.93;;;;;;;5.94;49.99;100940.16;5030405;28;20029;-23
2021/04/12 00:25:00;;;;;;;7.90;4.00;;;;;;;6.26;50.40;100940.34;5032172;28;20025;-23
2021/04/12 00:27:56;;;;;;;6.28;4.22;;;;;;;6.42;50.02;100927.88;5030058;28;20025;-21
2021/04/12 00:30:36;;;;;;;6.63;4.38;;;;;;;6.25;50.15;100934.19;5013703;28;20044;-23
2021/04/12 00:33:09;;;;;;;7.00;4.18;;;;;;;5.56;52.83;100934.56;5029935;28;20063;-21
2021/04/12 00:35:37;;;;;;;7.10;3.95;;;;;;;5.68;52.41;100934.22;5030077;28;20033;-23
2021/04/12 00:38:15;;;;;;;6.57;3.75;;;;;;;5.67;52.99;100932.59;5047818;28;20025;-22
2021/04/12 00:41:00;;;;;;;8.05;4.45;;;;;;;5.13;54.73;100927.72;5047437;28;20028;-23
2021/04/12 00:44:01;;;;;;;8.13;4.63;;;;;;;4.68;56.34;100920.97;5015683;28;20458;-22
2021/04/12 00:46:58;;;;;;;9.90;4.82;;;;;;;4.61;57.51;100915.50;5003516;28;20055;-22
2021/04/12 00:49:49;;;;;;;7.47;4.85;;;;;;;4.93;55.42;100906.03;5002574;28;20052;-23
2021/04/12 00:52:33;;;;;;;11.32;5.18;;;;;;;4.77;56.66;100914.75;5030251;28;20091;-23
2021/04/12 00:55:24;;;;;;;8.75;5.70;;;;;;;4.72;56.56;100909.94;5047490;28;20485;-22
2021/04/12 00:58:14;;;;;;;8.52;4.63;;;;;;;5.37;54.75;100911.06;5032188;28;20032;-23
2021/04/12 01:01:10;;;;;;;9.57;5.30;;;;;;;5.34;53.86;100883.13;5047865;28;20139;-23
2021/04/12 01:04:05;;;;;;;7.32;4.50;;;;;;;5.40;53.43;100900.16;5047446;28;20032;-22
2021/04/12 01:06:49;;;;;;;7.88;5.00;;;;;;;5.28;54.59;100886.44;5047056;28;20079;-22
2021/04/12 01:09:23;;;;;;;7.90;5.15;;;;;;;5.47;53.55;100905.63;5047176;28;20044;-22
2021/04/12 01:12:08;;;;;;;10.30;5.60;;;;;;;5.95;51.88;100915.41;5029514;28;20052;-22
2021/04/12 01:14:52;;;;;;;11.45;5.80;;;;;;;5.67;52.98;100914.06;5046991;28;20445;-22
2021/04/12 01:17:48;;;;;;;9.15;5.30;;;;;;;5.56;53.91;100916.06;5047035;28;20044;-21
2021/04/12 01:20:52;;;;;;;9.68;5.50;;;;;;;5.94;53.82;100911.03;5028788;28;20025;-23
2021/04/12 01:24:00;;;;;;;10.63;5.60;;;;;;;5.42;54.13;100895.53;5046958;28;20028;-22
2021/04/12 01:26:28;;;;;;;8.63;5.47;;;;;;;4.60;56.39;100908.56;5031564;28;20048;-22
2021/04/12 01:29:18;;;;;;;;;;;;;;;5.42;54.47;100914.06;5047353;28;20079;-22
2021/04/12 01:32:21;;;;;;;9.75;6.00;;;;;;;4.96;55.25;100882.72;5029180;28;19909;-23
2021/04/12 01:35:01;;;;;;;10.02;6.22;;;;;;;4.46;56.93;100880.94;4949966;28;20518;-21
2021/04/12 01:37:36;;;;;;;13.80;7.68;;;;;;;3.93;58.24;100906.56;5022720;28;20573;-23
2021/04/12 01:40:15;;;;;;;13.00;8.15;;;;;;;4.40;56.23;100871.00;5046723;28;20485;-22
2021/04/12 01:42:53;;;;;;;14.77;7.65;;;;;;;3.59;59.92;100870.34;5047152;28;20420;-22
2021/04/12 01:45:29;;;;;;;11.85;6.55;;;;;;;3.49;59.66;100893.34;5046895;28;20032;-23
2021/04/12 01:48:26;;;;;;;14.50;8.20;;;;;;;4.27;57.45;100912.84;5029264;28;20410;-22
2021/04/12 01:51:30;;;;;;;15.10;8.20;;;;;;;4.43;56.46;100886.53;5029185;28;20114;-21
2021/04/12 01:54:01;;;;;;;16.73;9.73;;;;;;;4.63;55.87;100911.69;5031587;28;20079;-23
2021/04/12 01:56:48;;;;;;;14.10;7.50;;;;;;;3.71;59.33;100907.06;5046767;28;20029;-23
2021/04/12 01:59:56;;;;;;;14.48;7.22;;;;;;;3.14;61.20;100889.75;5050362;28;20021;-23
2021/04/12 02:02:40;;;;;;;10.05;6.13;;;;;;;3.21;60.92;100890.00;5012474;28;20094;-22
2021/04/12 02:05:24;;;;;;;13.93;7.20;;;;;;;3.52;59.83;100879.06;5050397;28;20029;-22
2021/04/12 02:08:17;;;;;;;12.48;7.40;;;;;;;3.92;58.78;100904.88;5050403;28;20033;-22
2021/04/12 02:11:27;;;;;;;11.55;6.88;;;;;;;3.71;59.19;100891.22;5035442;28;20041;-22
2021/04/12 02:14:14;;;;;;;13.00;6.45;;;;;;;3.47;60.51;100890.03;5032690;28;20035;-22
2021/04/12 02:16:46;;;;;;;14.68;8.77;;;;;;;2.86;61.59;100873.19;5050102;28;20586;-22
2021/04/12 02:19:32;;;;;;;14.80;8.93;;;;;;;2.96;61.21;100881.00;5050558;28;20112;-23
2021/04/12 02:22:32;;;;;;;19.52;9.75;;;;;;;3.26;60.50;100897.44;5050145;28;20485;-23
2021/04/12 02:25:19;;;;;;;18.92;9.75;;;;;;;3.86;58.85;100894.13;5050178;28;20029;-23
2021/04/12 02:28:13;;;;;;;18.73;10.23;;;;;;;4.45;56.94;100891.66;5032740;28;20074;-22
2021/04/12 02:30:52;;;;;;;18.80;11.13;;;;;;;4.55;56.75;100885.25;5049951;28;20029;-22
2021/04/12 02:33:17;;;;;;;;;;;;;;;4.85;56.00;100890.16;5016524;28;20029;-21
2021/04/12 02:36:24;;;;;;;17.58;9.32;;;;;;;4.67;55.66;100892.91;5049799;28;19913;-22
2021/04/12 02:39:02;;;;;;;20.70;9.93;;;;;;;4.60;56.21;100888.25;5012108;28;20103;-21
2021/04/12 02:41:42;;;;;;;17.65;9.45;;;;;;;4.88;56.34;100884.53;5050180;28;20130;-22
2021/04/12 02:44:45;;;;;;;25.55;15.02;;;;;;;4.92;54.87;100888.50;5049637;28;20105;-22
2021/04/12 02:47:41;;;;;;;22.92;12.20;;;;;;;4.69;55.88;100891.75;5049587;28;20037;-23
2021/04/12 02:50:44;;;;;;;20.92;10.60;;;;;;;4.95;55.13;100890.84;5049286;28;20111;-21
2021/04/12 02:53:17;;;;;;;23.27;12.68;;;;;;;4.99;54.46;100881.59;5050039;28;20067;-22
2021/04/12 02:56:01;;;;;;;19.25;11.25;;;;;;;4.73;54.89;100866.66;5049595;28;20064;-22
2021/04/12 02:58:49;;;;;;;16.58;8.70;;;;;;;4.62;55.87;100872.25;5049302;28;20083;-21
2021/04/12 03:01:37;;;;;;;14.45;8.52;;;;;;;5.02;54.29;100876.78;5034479;28;20028;-22
2021/04/12 03:04:20;;;;;;;15.00;9.37;;;;;;;4.94;55.00;100870.69;5049391;28;20035;-21
2021/04/12 03:07:09;;;;;;;13.55;8.63;;;;;;;4.39;56.44;100870.19;5049222;28;20036;-23
2021/04/12 03:09:49;;;;;;;13.75;8.60;;;;;;;4.21;57.14;100874.72;5030399;28;20054;-22
2021/04/12 03:12:36;;;;;;;14.07;9.23;;;;;;;4.56;56.14;100849.13;5049257;28;20086;-22
2021/04/12 03:15:14;;;;;;;15.00;8.90;;;;;;;4.89;54.74;100865.06;5049297;28;20405;-23
2021/04/12 03:17:51;;;;;;;19.23;10.73;;;;;;;4.85;55.44;100859.25;5049531;28;20841;-22
2021/04/12 03:20:38;;;;;;;13.65;8.60;;;;;;;4.33;56.52;100868.19;5048897;28;20408;-22
2021/04/12 03:23:25;;;;;;;22.42;13.05;;;;;;;3.74;58.66;100859.25;5048947;28;20036;-23
2021/04/12 03:25:53;;;;;;;38.08;24.73;;;;;;;3.24;60.76;100857.22;5049221;28;20404;-22
2021/04/12 03:28:56;;;;;;;32.33;20.08;;;;;;;3.28;60.10;100854.13;5048708;28;20513;-22
2021/04/12 03:31:39;;;;;;;31.98;17.05;;;;;;;3.31;60.62;100863.53;5048890;28;20063;-22
2021/04/12 03:34:23;;;;;;;24.50;15.85;;;;;;;3.76;59.02;100863.41;5031177;28;20032;-22
2021/04/12 03:37:10;;;;;;;28.00;17.95;;;;;;;3.96;58.29;100864.03;5048795;28;20037;-23
2021/04/12 03:39:47;;;;;;;28.63;16.02;;;;;;;3.04;59.95;100825.75;5048814;28;20116;-20
2021/04/12 03:42:31;;;;;;;28.70;15.52;;;;;;;3.42;58.89;100845.69;5048188;28;20432;-22
2021/04/12 03:45:14;;;;;;;29.17;16.20;;;;;;;3.70;58.26;100868.44;5048224;28;20029;-23
2021/04/12 03:48:31;;;;;;;24.30;13.65;;;;;;;3.21;59.84;100861.00;5031159;28;20041;-23
2021/04/12 03:51:08;;;;;;;22.98;13.77;;;;;;;3.34;60.04;100868.53;5025125;28;20492;-21
2021/04/12 03:53:40;;;;;;;28.38;15.23;;;;;;;3.00;61.29;100871.81;5048530;28;20032;-23
2021/04/12 03:56:22;;;;;;;21.38;13.23;;;;;;;3.30;59.74;100868.00;5048552;28;20033;-23
2021/04/12 03:59:15;;;;;;;23.67;13.77;;;;;;;2.54;62.79;100876.28;5030594;28;20025;-23
2021/04/12 04:02:11;;;;;;;26.00;14.77;;;;;;;3.54;59.13;100864.72;5048332;28;20087;-22
2021/04/12 04:05:00;;;;;;;28.35;15.23;;;;;;;2.98;61.50;100864.09;5031914;28;20044;-23
2021/04/12 04:08:03;;;;;;;26.23;16.83;;;;;;;2.79;61.54;100849.22;5030382;28;20104;-22
2021/04/12 04:10:57;;;;;;;33.80;18.63;;;;;;;2.99;60.95;100870.19;5015531;28;20512;-22
2021/04/12 04:13:41;;;;;;;34.63;20.00;;;;;;;3.14;61.24;100873.13;5030196;28;20463;-23
2021/04/12 04:16:38;;;;;;;41.20;24.38;;;;;;;3.11;60.78;100858.44;5048284;28;20883;-23
2021/04/12 04:19:36;;;;;;;27.73;15.35;;;;;;;3.27;60.44;100880.63;5030215;28;20040;-22
2021/04/12 04:22:21;;;;;;;21.50;11.10;;;;;;;3.79;58.80;100883.38;5029820;28;20370;-23
2021/04/12 04:25:17;;;;;;;18.58;11.13;;;;;;;3.42;60.65;100879.97;5047807;28;20037;-23
2021/04/12 04:27:42;;;;;;;19.83;12.70;;;;;;;3.92;58.81;100881.13;5047772;28;20079;-22
2021/04/12 04:30:26;;;;;;;23.20;11.70;;;;;;;4.22;57.95;100884.28;5047464;28;20029;-21
2021/04/12 04:33:02;;;;;;;18.85;11.95;;;;;;;3.81;58.81;100855.03;5047719;28;20032;-23
2021/04/12 04:35:52;;;;;;;24.50;12.93;;;;;;;3.94;59.08;100887.13;5014040;28;20527;-23
2021/04/12 04:38:48;;;;;;;20.35;12.70;;;;;;;3.93;59.09;100885.44;5047482;28;20063;-23
2021/04/12 04:41:20;;;;;;;39.08;25.15;;;;;;;4.11;59.21;100885.41;5047474;28;20036;-23
2021/04/12 04:44:02;;;;;;;23.08;12.60;;;;;;;3.78;61.00;100860.59;5047846;28;20037;-23
2021/04/12 04:46:41;;;;;;;23.95;12.25;;;;;;;3.98;60.43;100880.53;5031164;28;20032;-23
2021/04/12 04:49:12;;;;;;;;;;;;;;;3.91;60.75;100878.66;5030155;28;20035;-23
2021/04/12 04:51:59;;;;;;;22.85;14.75;;;;;;;3.99;60.58;100887.47;5047178;28;19921;-23
2021/04/12 04:54:50;;;;;;;26.30;12.15;;;;;;;4.05;60.43;100882.56;5014564;28;20028;-23
2021/04/12 04:57:42;;;;;;;22.45;11.73;;;;;;;4.03;62.08;100877.44;5013793;28;20045;-23
2021/04/12 05:00:27;;;;;;;17.15;9.40;;;;;;;3.96;61.66;100874.59;5029297;28;20033;-22
2021/04/12 05:03:05;;;;;;;21.67;10.60;;;;;;;4.22;60.86;100890.38;5047356;28;20037;-22
2021/04/12 05:05:45;;;;;;;18.55;9.98;;;;;;;3.97;61.92;100884.16;5047073;28;20607;-22
2021/04/12 05:08:17;;;;;;;14.20;8.65;;;;;;;4.25;60.94;100883.13;5047159;28;20417;-23
2021/04/12 05:10:48;;;;;;;14.38;8.80;;;;;;;5.00;59.78;100883.25;5047665;28;20084;-23
2021/04/12 05:13:16;;;;;;;18.80;9.65;;;;;;;5.11;59.34;100879.44;5047224;28;20043;-23
2021/04/12 05:16:09;;;;;;;11.50;7.07;;;;;;;5.31;57.76;100874.69;5029577;28;20032;-23
2021/04/12 05:19:05;;;;;;;12.82;8.75;;;;;;;5.52;57.73;100884.81;5047078;28;20509;-23
2021/04/12 05:21:57;;;;;;;15.27;8.35;;;;;;;5.87;58.19;100880.97;5047148;28;20072;-23
2021/04/12 05:24:35;;;;;;;12.43;7.18;;;;;;;6.12;57.25;100878.28;5046706;28;20020;-21
2021/04/12 05:27:26;;;;;;;14.07;7.47;;;;;;;6.44;55.01;100859.63;5047336;28;20033;-23
2021/04/12 05:30:22;;;;;;;14.75;9.07;;;;;;;6.62;56.08;100879.78;5046741;28;20037;-22
2021/04/12 05:32:59;;;;;;;11.02;8.27;;;;;;;6.36;57.45;100851.72;5048379;28;20480;-22
2021/04/12 05:35:37;;;;;;;13.32;7.40;;;;;;;6.60;57.45;100873.81;5051274;28;20890;-22
2021/04/12 05:38:21;;;;;;;14.23;7.43;;;;;;;6.98;56.67;100868.63;5033447;28;20440;-22
2021/04/12 05:41:44;;;;;;;16.90;9.05;;;;;;;6.99;57.74;100865.00;5050815;28;20033;-23
2021/04/12 05:45:00;;;;;;;20.55;10.13;;;;;;;7.14;57.93;100854.44;4969942;28;20038;-22
2021/04/12 05:47:50;;;;;;;13.60;8.68;;;;;;;7.45;56.32;100854.34;4938148;28;20526;-23
2021/04/12 05:50:24;;;;;;;14.20;9.45;;;;;;;7.55;56.69;100851.47;5050879;28;20173;-22
2021/04/12 05:53:08;;;;;;;12.13;7.40;;;;;;;7.84;54.18;100863.94;5016943;28;20206;-23
2021/04/12 05:55:36;;;;;;;16.13;7.85;;;;;;;8.33;53.07;100859.94;5050737;28;20032;-23
2021/04/12 05:58:21;;;;;;;;;;;;;;;8.49;51.83;100856.28;5051045;28;20751;-23
2021/04/12 06:00:58;;;;;;;10.77;6.13;;;;;;;8.41;51.41;100839.44;5050900;28;20367;-23
2021/04/12 06:04:08;;;;;;;13.93;7.22;;;;;;;8.43;51.18;100858.66;5050709;28;20075;-23
2021/04/12 06:07:11;;;;;;;11.20;6.25;;;;;;;8.80;50.07;100846.22;4987584;28;20126;-22
2021/04/12 06:09:55;;;;;;;10.13;6.22;;;;;;;8.71;49.28;100851.84;5050331;28;20476;-23
2021/04/12 06:12:39;;;;;;;10.68;6.38;;;;;;;8.49;49.16;100850.97;5050184;28;20032;-21
2021/04/12 06:15:34;;;;;;;13.70;7.28;;;;;;;9.09;46.71;100852.44;5050253;28;20045;-21
2021/04/12 06:18:21;;;;;;;12.40;7.15;;;;;;;9.19;46.92;100847.66;5050346;28;20033;-23
2021/04/12 06:21:13;;;;;;;9.20;6.05;;;;;;;9.18;45.26;100840.69;5050270;28;20501;-23
2021/04/12 06:24:17;;;;;;;8.70;5.63;;;;;;;9.56;43.85;100843.06;5034144;28;20158;-22
2021/04/12 06:27:21;;;;;;;10.27;5.78;;;;;;;9.74;43.20;100849.72;5010931;28;20213;-22
2021/04/12 06:30:11;;;;;;;8.18;5.38;;;;;;;9.95;42.22;100841.69;5017929;28;20043;-22
2021/04/12 06:33:28;;;;;;;10.35;5.45;;;;;;;9.90;41.59;100844.09;5070248;28;20020;-21
2021/04/12 06:36:26;;;;;;;11.65;6.18;;;;;;;9.84;42.74;100848.38;5018686;28;20040;-23
2021/04/12 06:39:02;;;;;;;9.70;6.50;;;;;;;9.98;42.99;100846.63;5035317;28;20051;-22
2021/04/12 06:42:18;;;;;;;11.90;6.25;;;;;;;10.19;42.17;100852.88;5052301;28;20024;-23
2021/04/12 06:45:21;;;;;;;15.73;7.10;;;;;;;9.97;41.47;100852.97;5035418;28;20052;-22
2021/04/12 06:48:24;;;;;;;13.65;6.10;;;;;;;10.22;42.83;100841.84;5069680;28;20032;-23
2021/04/12 06:51:19;;;;;;;12.35;5.80;;;;;;;10.56;40.64;100848.16;5069765;28;20114;-22
2021/04/12 06:54:07;;;;;;;14.93;6.82;;;;;;;10.71;41.34;100845.34;5051532;28;20025;-22
2021/04/12 06:56:40;;;;;;;;;;;;;;;10.91;42.61;100840.91;5059095;28;20145;-22
2021/04/12 06:59:16;;;;;;;10.77;5.93;;;;;;;10.90;41.64;100843.75;5040152;28;19987;-22
2021/04/12 07:01:59;;;;;;;34.05;11.13;;;;;;;10.86;42.41;100830.81;5050680;28;20025;-22
2021/04/12 07:04:34;;;;;;;9.40;6.10;;;;;;;10.86;43.54;100833.47;5036040;28;20029;-23
2021/04/12 07:07:37;;;;;;;12.20;6.25;;;;;;;10.98;42.59;100835.56;5062146;28;20032;-22
2021/04/12 07:10:24;;;;;;;9.88;5.80;;;;;;;11.19;42.88;100832.69;5069630;28;20067;-23
2021/04/12 07:13:08;;;;;;;10.73;6.30;;;;;;;11.20;41.95;100823.69;5043371;28;20086;-22
2021/04/12 07:15:39;;;;;;;13.10;6.72;;;;;;;11.70;42.45;100831.25;5041185;28;20060;-22
2021/04/12 07:18:14;;;;;;;10.98;6.22;;;;;;;11.62;40.96;100831.47;5049159;28;20626;-22
2021/04/12 07:21:20;;;;;;;23.35;9.40;;;;;;;11.70;43.37;100828.59;5049084;28;20029;-22
2021/04/12 07:24:28;;;;;;;16.40;6.90;;;;;;;11.69;43.54;100818.09;5004419;28;20475;-22
2021/04/12 07:27:31;;;;;;;15.77;6.80;;;;;;;11.88;43.25;100811.09;5037546;28;20072;-26
2021/04/12 07:30:18;;;;;;;26.17;10.82;;;;;;;12.41;41.41;100808.28;5048998;28;20044;-23
2021/04/12 07:32:58;;;;;;;15.98;7.45;;;;;;;12.31;40.07;100781.16;5048948;28;20033;-22
2021/04/12 07:35:42;;;;;;;12.18;6.22;;;;;;;12.27;41.47;100794.13;5030783;28;20043;-22
2021/04/12 07:38:20;;;;;;;35.17;10.23;;;;;;;12.58;41.82;100792.56;5048561;28;20086;-21
2021/04/12 07:41:04;;;;;;;33.85;11.65;;;;;;;12.76;42.34;100784.63;5048965;28;20392;-22
2021/04/12 07:43:51;;;;;;;35.90;13.25;;;;;;;12.80;42.06;100795.72;5048721;28;20037;-22
2021/04/12 07:46:50;;;;;;;25.25;11.48;;;;;;;12.51;40.73;100792.59;5048480;28;20420;-22
2021/04/12 07:49:46;;;;;;;12.32;7.05;;;;;;;12.75;40.52;100791.03;5048639;28;20063;-21
2021/04/12 07:52:39;;;;;;;14.63;7.30;;;;;;;12.71;41.97;100781.78;5048024;28;20044;-22
2021/04/12 07:55:28;;;;;;;47.65;17.88;;;;;;;13.35;39.87;100787.13;5047996;28;20025;-22
2021/04/12 07:58:21;;;;;;;15.50;8.52;;;;;;;13.46;39.70;100772.97;5048365;28;20075;-21
2021/04/12 08:01:05;;;;;;;12.40;7.72;;;;;;;13.84;37.82;100780.84;5048492;28;20531;-22
2021/04/12 08:03:53;;;;;;;16.58;8.75;;;;;;;13.63;39.31;100749.13;5048345;28;20033;-21
2021/04/12 08:06:57;;;;;;;18.00;9.20;;;;;;;13.98;39.27;100768.13;5014568;28;20108;-22
2021/04/12 08:09:47;;;;;;;16.30;8.38;;;;;;;13.84;36.13;100769.31;5048146;28;20032;-22
2021/04/12 08:12:18;;;;;;;16.60;8.07;;;;;;;14.36;35.93;100750.91;5048173;28;20068;-22
2021/04/12 08:15:36;;;;;;;14.98;9.23;;;;;;;14.26;37.68;100732.72;5048135;28;20524;-22
2021/04/12 08:18:23;;;;;;;20.02;9.57;;;;;;;14.38;38.07;100732.72;4955851;28;20501;-22
2021/04/12 08:20:54;;;;;;;17.35;9.57;;;;;;;14.57;40.58;100738.09;4967212;28;20046;-21
2021/04/12 08:23:50;;;;;;;32.33;16.35;;;;;;;14.23;36.77;100741.19;5008772;28;20143;-21
2021/04/12 08:26:35;;;;;;;14.13;8.20;;;;;;;14.55;37.66;100734.81;5029902;28;20025;-21
2021/04/12 08:29:02;;;;;;;13.77;7.93;;;;;;;15.15;36.08;100737.38;5048004;28;20784;-22
2021/04/12 08:31:46;;;;;;;13.57;7.63;;;;;;;15.00;36.25;100739.72;5048047;28;20090;-22
2021/04/12 08:34:37;;;;;;;13.65;8.50;;;;;;;15.03;37.15;100734.69;5047367;28;20037;-22
2021/04/12 08:37:24;;;;;;;13.18;8.60;;;;;;;15.28;37.65;100712.13;5048278;28;20477;-22
2021/04/12 08:40:11;;;;;;;20.20;13.80;;;;;;;15.54;37.46;100735.03;5029890;28;20528;-22
2021/04/12 08:42:56;;;;;;;12.77;7.30;;;;;;;15.67;35.53;100721.34;5047688;28;20091;-21
2021/04/12 08:45:58;;;;;;;14.77;10.35;;;;;;;15.65;34.75;100715.41;5047448;28;20041;-22
2021/04/12 08:48:34;;;;;;;63.90;48.47;;;;;;;15.80;35.79;100723.00;5047632;28;20571;-21
2021/04/12 08:51:39;;;;;;;14.05;8.63;;;;;;;15.83;34.60;100716.31;5030111;28;20052;-22
2021/04/12 08:54:05;;;;;;;23.33;16.02;;;;;;;15.85;34.91;100703.44;5045552;28;20037;-22
2021/04/12 08:56:58;;;;;;;106.13;50.15;;;;;;;16.30;37.44;100700.00;5047376;28;20032;-22
2021/04/12 08:59:55;;;;;;;11.75;7.55;;;;;;;16.42;35.17;100692.69;5047138;28;20021;-22
2021/04/12 09:02:38;;;;;;;12.38;7.97;;;;;;;16.01;36.12;100678.47;5047389;28;20040;-22
2021/04/12 09:05:39;;;;;;;9.45;6.35;;;;;;;16.64;33.30;100673.13;5047320;28;20029;-21
2021/04/12 09:08:34;;;;;;;14.02;8.65;;;;;;;17.34;34.82;100674.47;5001803;28;20049;-22
2021/04/12 09:11:16;;;;;;;12.15;8.00;;;;;;;17.50;33.19;100667.41;4975872;28;20043;-22
2021/04/12 09:14:19;;;;;;;13.23;8.00;;;;;;;16.56;34.02;100666.28;5030361;28;20025;-21
2021/04/12 09:17:11;;;;;;;10.32;6.68;;;;;;;16.57;33.64;100662.53;5047278;28;20048;-22
2021/04/12 09:19:57;;;;;;;14.82;7.68;;;;;;;16.76;34.11;100638.88;5047091;28;20048;-22
2021/04/12 09:23:13;;;;;;;12.38;6.00;;;;;;;17.67;31.25;100634.97;5028977;28;20140;-20
2021/04/12 09:26:09;;;;;;;9.45;5.70;;;;;;;17.30;31.24;100642.88;4949904;28;20043;-21
2021/04/12 09:29:11;;;;;;;9.88;6.07;;;;;;;17.19;32.79;100634.66;4966263;28;20085;-21
2021/04/12 09:31:55;;;;;;;9.90;6.00;;;;;;;17.99;31.27;100627.00;5046763;28;20124;-21
2021/04/12 09:34:45;;;;;;;10.77;6.30;;;;;;;18.62;29.63;100629.19;5046551;28;20037;-21
2021/04/12 09:37:47;;;;;;;10.40;5.95;;;;;;;18.87;30.40;100632.09;5046909;28;20043;-21
2021/04/12 09:40:36;;;;;;;9.88;5.28;;;;;;;18.92;29.97;100627.78;5046820;28;20029;-20
2021/04/12 09:43:24;;;;;;;11.43;6.43;;;;;;;19.32;30.63;100631.81;5029141;28;20064;-21
2021/04/12 09:46:01;;;;;;;10.27;5.82;;;;;;;19.79;29.97;100634.44;5047015;28;20033;-21
2021/04/12 09:49:14;;;;;;;44.45;15.77;;;;;;;19.71;29.26;100632.25;5046791;28;20044;-21
2021/04/12 09:52:04;;;;;;;12.68;6.30;;;;;;;19.24;28.73;100617.69;4946309;29;20118;-20
2021/04/12 09:54:41;;;;;;;10.20;6.40;;;;;;;19.81;29.14;100609.84;5046792;28;20477;-21
2021/04/12 09:57:26;;;;;;;9.27;5.50;;;;;;;18.93;29.43;100610.50;5046803;28;20044;-21
2021/04/12 09:59:56;;;;;;;9.38;5.88;;;;;;;19.41;29.41;100614.81;5046600;28;20267;-21
2021/04/12 10:03:13;;;;;;;9.57;5.45;;;;;;;19.82;28.42;100601.44;5046723;28;20068;-21
2021/04/12 10:06:11;;;;;;;9.75;6.07;;;;;;;19.70;30.06;100606.25;5012565;28;20056;-21
2021/04/12 10:09:14;;;;;;;10.50;6.00;;;;;;;19.18;32.98;100594.41;5046683;28;20033;-20
2021/04/12 10:12:07;;;;;;;8.48;5.70;;;;;;;20.00;29.09;100591.19;5046367;28;20031;-21
2021/04/12 10:14:35;;;;;;;8.32;5.53;;;;;;;20.83;27.78;100582.78;5046565;28;20116;-21
2021/04/12 10:17:04;;;;;;;12.23;5.38;;;;;;;20.64;27.39;100596.09;5028749;28;20051;-21
2021/04/12 10:19:45;;;;;;;8.40;4.95;;;;;;;20.93;27.49;100575.72;5031156;28;20021;-21
2021/04/12 10:22:15;;;;;;;7.47;4.95;;;;;;;21.09;28.69;100580.00;5034063;28;20166;-21
2021/04/12 10:24:56;;;;;;;9.07;5.22;;;;;;;20.37;27.96;100566.56;5050300;28;20036;-21
2021/04/12 10:27:26;;;;;;;7.90;5.65;;;;;;;20.62;27.79;100578.50;5034282;28;20037;-21
2021/04/12 10:30:01;;;;;;;9.15;5.13;;;;;;;20.94;28.61;100577.31;5032662;28;20115;-21
2021/04/12 10:32:30;;;;;;;10.43;5.68;;;;;;;20.62;28.32;100570.38;5049913;28;20767;-22
2021/04/12 10:35:00;;;;;;;7.70;4.95;;;;;;;21.00;26.64;100570.81;5032826;28;20025;-22
2021/04/12 10:37:44;;;;;;;7.85;5.07;;;;;;;20.80;28.39;100564.38;5016502;28;20102;-21
2021/04/12 10:40:32;;;;;;;7.53;4.60;;;;;;;21.04;29.96;100572.72;5055263;28;20039;-22
2021/04/12 10:43:18;;;;;;;9.40;4.68;;;;;;;21.01;27.17;100564.31;5039554;28;20095;-22
2021/04/12 10:45:55;;;;;;;9.13;4.90;;;;;;;20.66;27.79;100563.31;5036957;28;20025;-22
2021/04/12 10:48:23;;;;;;;7.85;4.63;;;;;;;20.86;26.76;100555.13;5054741;28;20041;-22
2021/04/12 10:51:19;;;;;;;8.27;5.10;;;;;;;21.61;27.15;100535.28;5054466;28;20151;-22
2021/04/12 10:54:03;;;;;;;10.23;5.00;;;;;;;21.32;27.73;100550.63;5054779;28;20035;-22
2021/04/12 10:56:45;;;;;;;31.70;21.20;;;;;;;22.02;26.80;100529.56;5055006;28;20485;-21
2021/04/12 10:59:24;;;;;;;46.47;30.95;;;;;;;21.67;28.31;100531.44;5049681;28;20033;-21
2021/04/12 11:01:49;;;;;;;10.25;4.55;;;;;;;21.20;26.89;100543.59;5031714;28;20025;-21
2021/04/12 11:04:39;;;;;;;6.70;4.30;;;;;;;21.80;26.55;100512.91;5049028;28;20048;-21
2021/04/12 11:07:34;;;;;;;9.23;4.20;;;;;;;21.53;26.64;100524.22;5016313;28;20036;-22
2021/04/12 11:10:30;;;;;;;6.15;4.00;;;;;;;21.66;26.65;100518.16;5049405;28;20071;-21
2021/04/12 11:13:08;;;;;;;5.72;3.80;;;;;;;22.03;25.19;100525.75;5049205;28;20041;-21
2021/04/12 11:15:58;;;;;;;6.53;3.97;;;;;;;21.78;25.61;100524.06;5031340;28;20037;-21
2021/04/12 11:18:47;;;;;;;8.40;4.25;;;;;;;22.41;26.83;100520.56;5049111;28;20029;-21
2021/04/12 11:21:30;;;;;;;11.07;4.25;;;;;;;22.55;24.86;100520.69;5031502;28;20143;-21
2021/04/12 11:24:32;;;;;;;8.43;4.25;;;;;;;23.45;25.55;100507.38;5031273;28;20029;-21
2021/04/12 11:27:13;;;;;;;7.25;4.10;;;;;;;22.19;26.30;100501.16;5027973;28;20045;-21
2021/04/12 11:29:40;;;;;;;8.70;3.83;;;;;;;22.46;25.03;100503.41;5047121;28;20032;-21
2021/04/12 11:32:29;;;;;;;6.20;3.65;;;;;;;23.03;24.39;100506.31;5030802;28;20048;-21
2021/04/12 11:34:57;;;;;;;9.27;3.80;;;;;;;23.10;23.35;100484.19;5031235;28;20072;-21
2021/04/12 11:37:51;;;;;;;7.13;3.80;;;;;;;23.48;24.10;100474.13;5031069;28;20037;-21
2021/04/12 11:40:23;;;;;;;8.95;4.60;;;;;;;23.65;23.58;100489.91;5033297;28;20390;-21
2021/04/12 11:43:00;;;;;;;7.30;3.92;;;;;;;23.92;22.67;100477.53;5015516;28;20104;-21
2021/04/12 11:45:33;;;;;;;5.82;3.53;;;;;;;23.63;24.13;100471.16;5030901;28;20017;-21
2021/04/12 11:48:08;;;;;;;7.78;4.50;;;;;;;23.70;24.28;100492.56;5015308;28;20055;-21
2021/04/12 11:50:45;;;;;;;6.53;4.03;;;;;;;23.83;24.69;100477.41;5048361;28;20061;-21
2021/04/12 11:53:28;;;;;;;7.50;4.38;;;;;;;23.55;23.77;100469.09;5048683;28;20033;-21
2021/04/12 11:56:06;;;;;;;11.40;4.97;;;;;;;22.94;23.17;100434.59;5032527;28;20505;-21
2021/04/12 11:58:42;;;;;;;7.90;4.70;;;;;;;23.48;25.48;100465.97;5014613;28;20049;-21
2021/04/12 12:01:21;;;;;;;8.65;4.70;;;;;;;23.87;23.85;100448.47;5030691;28;20037;-21
2021/04/12 12:04:11;;;;;;;8.30;4.57;;;;;;;24.53;22.74;100448.38;5048338;28;20120;-21
2021/04/12 12:06:49;;;;;;;8.73;4.53;;;;;;;25.23;22.81;100449.91;5030383;28;20025;-21
2021/04/12 12:09:21;;;;;;;;;;;;;;;24.70;21.97;100448.56;5048744;28;20021;-21
2021/04/12 12:11:58;;;;;;;9.02;4.22;;;;;;;24.73;21.29;100453.44;5030459;28;20420;-20
2021/04/12 12:14:51;;;;;;;9.13;4.05;;;;;;;25.25;21.06;100448.53;5048241;28;20477;-21
2021/04/12 12:17:21;;;;;;;8.43;4.32;;;;;;;26.23;20.71;100440.63;5015601;28;20037;-21
2021/04/12 12:19:52;;;;;;;6.75;3.63;;;;;;;26.35;19.08;100418.97;5013998;28;20029;-21
2021/04/12 12:22:52;;;;;;;6.78;4.20;;;;;;;25.74;20.84;100420.59;5013641;28;20033;-21
2021/04/12 12:25:29;;;;;;;8.65;4.00;;;;;;;26.25;20.28;100430.19;5016676;28;20041;-21
2021/04/12 12:28:19;;;;;;;6.40;3.90;;;;;;;26.72;19.23;100427.00;5030100;28;20037;-21
2021/04/12 12:30:50;;;;;;;7.47;4.32;;;;;;;26.31;19.95;100417.19;5033178;28;20051;-21
2021/04/12 12:33:41;;;;;;;9.20;4.00;;;;;;;25.71;21.25;100415.75;5047675;28;20103;-21
2021/04/12 12:36:42;;;;;;;10.60;3.70;;;;;;;24.64;23.54;100400.69;5020711;28;20640;-20
2021/04/12 12:39:17;;;;;;;8.65;3.85;;;;;;;24.38;23.05;100409.38;5033311;28;20040;-21
2021/04/12 12:41:44;;;;;;;6.13;3.67;;;;;;;24.80;22.04;100393.81;5029930;28;20035;-22
2021/04/12 12:44:11;;;;;;;21.45;5.10;;;;;;;25.74;20.26;100398.72;5013571;28;20790;-21
2021/04/12 12:46:38;;;;;;;6.63;3.50;;;;;;;25.75;20.06;100397.63;5029839;28;20025;-21
2021/04/12 12:49:15;;;;;;;6.10;3.53;;;;;;;26.63;20.08;100392.22;5030103;28;20047;-21
2021/04/12 12:51:50;;;;;;;6.28;3.58;;;;;;;25.36;21.90;100363.66;5029508;28;20102;-21